PDT,Max TemperatureF,Mean TemperatureF,Min TemperatureF,Max Dew PointF,MeanDew PointF,Min DewpointF,Max Humidity, Mean Humidity, Min Humidity, Max Sea Level PressureIn, Mean Sea Level PressureIn, Min Sea Level PressureIn, Max VisibilityMiles, Mean VisibilityMiles, Min VisibilityMiles, Max Wind SpeedMPH, Mean Wind SpeedMPH, Max Gust SpeedMPH,PrecipitationIn, CloudCover, Events, WindDirDegrees
2013-3-1,55,52,49,50,48,46,93,88,83,30.41,30.37,30.31,10,9,3,23,11,32,0.03,8,Rain,199
2013-3-2,53,45,37,49,45,36,100,92,83,30.30,30.23,30.17,10,7,2,21,7,25,0.12,7,Rain,250
2013-3-3,49,41,32,39,35,31,100,83,66,30.32,30.31,30.28,10,7,0,17,6,22,0.01,3,Fog-Rain,103
2013-3-4,57,44,31,41,32,26,100,66,32,30.25,30.11,29.88,10,6,0,21,7,24,0.00,2,Fog,110
2013-3-5,45,43,40,43,40,37,96,89,82,29.87,29.78,29.65,10,9,4,9,3,14,0.40,8,Rain,84
2013-3-6,46,44,41,43,41,39,93,90,86,29.91,29.73,29.57,10,8,2,15,6,22,0.58,8,Rain,194
2013-3-7,51,43,35,43,40,34,96,84,71,30.06,30.01,29.91,10,9,0,14,5,22,0.10,6,Fog-Rain,184
2013-3-8,54,43,31,43,35,30,100,83,66,30.24,30.09,30.05,10,5,0,16,5,21,0.00,3,Fog,85
2013-3-9,50,40,29,41,35,28,100,83,66,30.51,30.40,30.25,10,7,0,12,4,14,0.00,3,Fog,92
2013-3-10,45,40,34,45,41,33,92,91,89,30.50,30.45,30.41,10,6,1,7,2,9,0.10,8,Rain,67
2013-3-11,50,47,44,48,46,44,100,97,93,30.42,30.33,30.21,10,4,0,16,5,23,0.23,8,Fog-Rain,182
2013-3-12,53,51,49,48,47,46,93,88,83,30.20,30.16,30.15,10,10,6,20,10,28,0.01,8,Rain,202
2013-3-13,54,50,46,49,47,44,100,89,77,30.22,30.17,30.10,10,9,3,13,4,16,0.14,7,Rain,217
2013-3-14,52,50,47,49,46,43,93,82,71,30.18,30.11,30.06,10,7,2,24,10,35,0.10,8,Rain,192
2013-3-15,50,49,47,50,48,46,100,97,93,30.25,30.21,30.18,10,4,1,16,9,22,0.13,8,Rain,225
2013-3-16,49,45,40,46,43,35,100,86,71,30.18,30.10,30.04,10,8,2,25,12,31,0.24,8,Rain,241
2013-3-17,48,44,39,38,35,31,86,73,60,30.29,30.25,30.13,10,9,4,22,8,26,0.05,7,Rain,256
2013-3-18,50,43,36,40,38,34,92,77,61,30.27,30.24,30.17,10,10,10,16,6,23,T,6,Rain,253
2013-3-19,52,45,38,47,39,32,93,74,54,30.13,29.87,29.56,10,9,3,33,9,47,0.61,6,Rain,112
2013-3-20,51,45,39,48,43,32,93,80,67,30.13,29.66,29.43,10,6,1,33,20,58,0.75,8,Rain,233
2013-3-21,48,43,37,38,35,32,85,75,65,30.30,30.25,30.14,10,9,2,25,9,31,0.13,7,Rain,281
2013-3-22,47,41,34,38,33,30,92,73,53,30.39,30.34,30.30,10,10,4,26,6,32,0.09,3,Rain,287
2013-3-23,48,41,34,37,33,26,96,71,45,30.40,30.35,30.29,10,10,9,9,4,12,0.00,3,,15
2013-3-24,56,48,39,37,36,34,85,64,43,30.28,30.18,30.10,10,10,10,13,5,15,T,8,Rain,49
2013-3-25,59,50,40,42,38,33,92,66,40,30.08,30.00,29.95,10,10,10,12,4,14,0.00,6,,309
2013-3-26,53,49,45,47,45,42,100,89,77,30.03,30.00,29.98,10,9,2,9,4,10,T,8,Rain,267
2013-3-27,59,53,47,49,46,44,100,81,62,30.00,29.95,29.92,10,8,4,12,4,13,0.00,7,Rain,334
2013-3-28,58,53,48,49,47,45,100,83,66,30.15,30.06,30.00,10,8,4,12,3,14,0.01,8,Rain,312
2013-3-29,60,55,49,49,47,41,100,86,72,30.23,30.20,30.16,10,10,7,14,5,17,0.00,6,,324
2013-3-30,70,56,41,50,45,39,100,73,45,30.20,30.10,29.99,10,9,1,16,7,21,0.00,0,,49
2013-3-31,62,52,42,49,46,42,100,82,64,30.02,29.99,29.97,10,5,0,17,5,24,0.00,4,Fog,251